sensor_id;sensor_type;location;lat;lon;timestamp;temperature;humidity
71177;DHT22;58877;51.992;4.504;2022-11-20T00:01:17;0.36;78.17
71177;DHT22;58877;51.992;4.504;2022-11-20T00:03:44;0.29;78.00
71177;DHT22;58877;51.992;4.504;2022-11-20T00:06:13;0.28;78.25
71177;DHT22;58877;51.992;4.504;2022-11-20T00:08:39;0.33;78.03
71177;DHT22;58877;51.992;4.504;2022-11-20T00:11:10;0.36;77.81
71177;DHT22;58877;51.992;4.504;2022-11-20T00:13:36;0.32;77.73
71177;DHT22;58877;51.992;4.504;2022-11-20T00:16:04;0.25;78.09
71177;DHT22;58877;51.992;4.504;2022-11-20T00:18:30;0.18;78.68
71177;DHT22;58877;51.992;4.504;2022-11-20T00:21:10;0.15;78.87
71177;DHT22;58877;51.992;4.504;2022-11-20T00:23:38;0.12;78.82
71177;DHT22;58877;51.992;4.504;2022-11-20T00:26:09;0.10;79.02
71177;DHT22;58877;51.992;4.504;2022-11-20T00:28:36;0.12;79.02
71177;DHT22;58877;51.992;4.504;2022-11-20T00:31:11;0.12;79.01
71177;DHT22;58877;51.992;4.504;2022-11-20T00:33:38;0.12;78.46
71177;DHT22;58877;51.992;4.504;2022-11-20T00:36:06;0.08;78.64
71177;DHT22;58877;51.992;4.504;2022-11-20T00:38:32;0.03;79.06
71177;DHT22;58877;51.992;4.504;2022-11-20T00:41:01;0.02;79.33
71177;DHT22;58877;51.992;4.504;2022-11-20T00:43:28;0.01;79.49
71177;DHT22;58877;51.992;4.504;2022-11-20T00:46:03;0.01;79.68
71177;DHT22;58877;51.992;4.504;2022-11-20T00:48:32;0.01;79.36
71177;DHT22;58877;51.992;4.504;2022-11-20T00:50:57;-0.01;79.28
71177;DHT22;58877;51.992;4.504;2022-11-20T00:53:23;0.02;79.00
71177;DHT22;58877;51.992;4.504;2022-11-20T00:55:59;0.01;78.86
71177;DHT22;58877;51.992;4.504;2022-11-20T00:58:29;-0.03;78.99
71177;DHT22;58877;51.992;4.504;2022-11-20T01:01:00;-0.03;79.47
71177;DHT22;58877;51.992;4.504;2022-11-20T01:03:26;-0.03;79.21
71177;DHT22;58877;51.992;4.504;2022-11-20T01:05:52;-0.03;78.93
71177;DHT22;58877;51.992;4.504;2022-11-20T01:08:23;-0.08;79.26
71177;DHT22;58877;51.992;4.504;2022-11-20T01:10:49;-0.08;79.44
71177;DHT22;58877;51.992;4.504;2022-11-20T01:13:14;-0.13;79.45
71177;DHT22;58877;51.992;4.504;2022-11-20T01:16:14;-0.16;79.01
71177;DHT22;58877;51.992;4.504;2022-11-20T01:18:43;-0.23;78.62
71177;DHT22;58877;51.992;4.504;2022-11-20T01:21:13;-0.26;78.96
71177;DHT22;58877;51.992;4.504;2022-11-20T01:23:40;-0.22;79.38
71177;DHT22;58877;51.992;4.504;2022-11-20T01:26:09;-0.21;79.42
71177;DHT22;58877;51.992;4.504;2022-11-20T01:28:35;-0.23;79.34
71177;DHT22;58877;51.992;4.504;2022-11-20T01:31:02;-0.23;79.21
71177;DHT22;58877;51.992;4.504;2022-11-20T01:33:36;-0.29;78.91
71177;DHT22;58877;51.992;4.504;2022-11-20T01:36:06;-0.29;79.08
71177;DHT22;58877;51.992;4.504;2022-11-20T01:38:32;-0.22;79.23
71177;DHT22;58877;51.992;4.504;2022-11-20T01:41:01;-0.22;79.01
71177;DHT22;58877;51.992;4.504;2022-11-20T01:43:27;-0.30;78.75
71177;DHT22;58877;51.992;4.504;2022-11-20T01:48:40;-0.35;78.92
71177;DHT22;58877;51.992;4.504;2022-11-20T01:51:21;-0.42;78.73
71177;DHT22;58877;51.992;4.504;2022-11-20T01:53:49;-0.42;78.83
71177;DHT22;58877;51.992;4.504;2022-11-20T01:56:18;-0.42;79.02
71177;DHT22;58877;51.992;4.504;2022-11-20T01:58:51;-0.37;79.34
71177;DHT22;58877;51.992;4.504;2022-11-20T02:01:18;-0.36;79.35
71177;DHT22;58877;51.992;4.504;2022-11-20T02:03:44;-0.32;79.04
71177;DHT22;58877;51.992;4.504;2022-11-20T02:06:16;-0.26;78.83
71177;DHT22;58877;51.992;4.504;2022-11-20T02:08:44;-0.32;78.70
71177;DHT22;58877;51.992;4.504;2022-11-20T02:11:10;-0.48;78.97
71177;DHT22;58877;51.992;4.504;2022-11-20T02:13:38;-0.50;79.39
71177;DHT22;58877;51.992;4.504;2022-11-20T02:18:44;-0.46;79.49
71177;DHT22;58877;51.992;4.504;2022-11-20T02:21:26;-0.56;79.46
71177;DHT22;58877;51.992;4.504;2022-11-20T02:24:03;-0.56;79.51
71177;DHT22;58877;51.992;4.504;2022-11-20T02:26:33;-0.66;79.48
71177;DHT22;58877;51.992;4.504;2022-11-20T02:29:02;-0.66;79.67
71177;DHT22;58877;51.992;4.504;2022-11-20T02:31:28;-0.59;80.40
71177;DHT22;58877;51.992;4.504;2022-11-20T02:33:57;-0.62;80.39
71177;DHT22;58877;51.992;4.504;2022-11-20T02:36:27;-0.62;80.17
71177;DHT22;58877;51.992;4.504;2022-11-20T02:38:53;-0.62;80.34
71177;DHT22;58877;51.992;4.504;2022-11-20T02:41:19;-0.65;80.55
71177;DHT22;58877;51.992;4.504;2022-11-20T02:43:45;-0.67;80.47
71177;DHT22;58877;51.992;4.504;2022-11-20T02:46:11;-0.65;80.58
71177;DHT22;58877;51.992;4.504;2022-11-20T02:48:36;-0.66;80.76
71177;DHT22;58877;51.992;4.504;2022-11-20T02:51:02;-0.62;80.72
71177;DHT22;58877;51.992;4.504;2022-11-20T02:53:28;-0.62;80.71
71177;DHT22;58877;51.992;4.504;2022-11-20T02:55:54;-0.60;80.57
71177;DHT22;58877;51.992;4.504;2022-11-20T02:58:19;-0.57;80.54
71177;DHT22;58877;51.992;4.504;2022-11-20T03:00:45;-0.60;80.43
71177;DHT22;58877;51.992;4.504;2022-11-20T03:03:10;-0.60;80.27
71177;DHT22;58877;51.992;4.504;2022-11-20T03:05:36;-0.65;80.42
71177;DHT22;58877;51.992;4.504;2022-11-20T03:08:01;-0.63;80.48
71177;DHT22;58877;51.992;4.504;2022-11-20T03:10:27;-0.63;80.66
71177;DHT22;58877;51.992;4.504;2022-11-20T03:12:54;-0.65;80.79
71177;DHT22;58877;51.992;4.504;2022-11-20T03:15:22;-0.63;80.73
71177;DHT22;58877;51.992;4.504;2022-11-20T03:17:47;-0.60;80.40
71177;DHT22;58877;51.992;4.504;2022-11-20T03:20:13;-0.65;80.29
71177;DHT22;58877;51.992;4.504;2022-11-20T03:22:39;-0.67;80.18
71177;DHT22;58877;51.992;4.504;2022-11-20T03:25:05;-0.74;80.14
71177;DHT22;58877;51.992;4.504;2022-11-20T03:27:37;-0.74;80.32
71177;DHT22;58877;51.992;4.504;2022-11-20T03:30:03;-0.77;80.31
71177;DHT22;58877;51.992;4.504;2022-11-20T03:32:29;-0.76;80.33
71177;DHT22;58877;51.992;4.504;2022-11-20T03:34:54;-0.80;80.28
71177;DHT22;58877;51.992;4.504;2022-11-20T03:37:20;-0.77;80.54
71177;DHT22;58877;51.992;4.504;2022-11-20T03:39:46;-0.76;80.59
71177;DHT22;58877;51.992;4.504;2022-11-20T03:42:11;-0.76;80.66
71177;DHT22;58877;51.992;4.504;2022-11-20T03:44:55;-0.74;80.58
71177;DHT22;58877;51.992;4.504;2022-11-20T03:47:21;-0.79;80.65
71177;DHT22;58877;51.992;4.504;2022-11-20T03:49:47;-0.79;80.69
71177;DHT22;58877;51.992;4.504;2022-11-20T03:52:12;-0.81;80.57
71177;DHT22;58877;51.992;4.504;2022-11-20T03:54:38;-0.83;80.33
71177;DHT22;58877;51.992;4.504;2022-11-20T03:57:03;-0.87;80.45
71177;DHT22;58877;51.992;4.504;2022-11-20T03:59:29;-0.83;80.63
71177;DHT22;58877;51.992;4.504;2022-11-20T04:01:54;-0.86;80.87
71177;DHT22;58877;51.992;4.504;2022-11-20T04:04:20;-0.87;80.87
71177;DHT22;58877;51.992;4.504;2022-11-20T04:06:48;-0.84;81.09
71177;DHT22;58877;51.992;4.504;2022-11-20T04:09:14;-0.83;81.07
71177;DHT22;58877;51.992;4.504;2022-11-20T04:11:40;-0.83;80.95
71177;DHT22;58877;51.992;4.504;2022-11-20T04:14:13;-0.86;81.22
71177;DHT22;58877;51.992;4.504;2022-11-20T04:16:39;-0.84;81.34
71177;DHT22;58877;51.992;4.504;2022-11-20T04:19:10;-0.84;81.13
71177;DHT22;58877;51.992;4.504;2022-11-20T04:21:37;-0.87;81.13
71177;DHT22;58877;51.992;4.504;2022-11-20T04:24:06;-0.83;81.12
71177;DHT22;58877;51.992;4.504;2022-11-20T04:26:32;-0.81;80.94
71177;DHT22;58877;51.992;4.504;2022-11-20T04:28:58;-0.79;81.01
71177;DHT22;58877;51.992;4.504;2022-11-20T04:31:27;-0.79;81.06
71177;DHT22;58877;51.992;4.504;2022-11-20T04:33:53;-0.79;80.96
71177;DHT22;58877;51.992;4.504;2022-11-20T04:36:24;-0.76;80.86
71177;DHT22;58877;51.992;4.504;2022-11-20T04:39:00;-0.73;80.83
71177;DHT22;58877;51.992;4.504;2022-11-20T04:41:28;-0.70;80.93
71177;DHT22;58877;51.992;4.504;2022-11-20T04:43:58;-0.72;80.78
71177;DHT22;58877;51.992;4.504;2022-11-20T04:46:32;-0.74;80.75
71177;DHT22;58877;51.992;4.504;2022-11-20T04:48:58;-0.72;80.75
71177;DHT22;58877;51.992;4.504;2022-11-20T04:51:24;-0.73;80.91
71177;DHT22;58877;51.992;4.504;2022-11-20T04:53:50;-0.73;81.00
71177;DHT22;58877;51.992;4.504;2022-11-20T04:56:15;-0.76;80.84
71177;DHT22;58877;51.992;4.504;2022-11-20T04:58:41;-0.76;80.71
71177;DHT22;58877;51.992;4.504;2022-11-20T05:01:13;-0.77;80.86
71177;DHT22;58877;51.992;4.504;2022-11-20T05:03:40;-0.80;80.86
71177;DHT22;58877;51.992;4.504;2022-11-20T05:06:07;-0.79;81.19
71177;DHT22;58877;51.992;4.504;2022-11-20T05:08:33;-0.76;81.09
71177;DHT22;58877;51.992;4.504;2022-11-20T05:11:01;-0.80;81.21
71177;DHT22;58877;51.992;4.504;2022-11-20T05:13:27;-0.79;81.16
71177;DHT22;58877;51.992;4.504;2022-11-20T05:15:53;-0.79;81.11
71177;DHT22;58877;51.992;4.504;2022-11-20T05:18:19;-0.81;81.05
71177;DHT22;58877;51.992;4.504;2022-11-20T05:20:54;-0.84;81.10
71177;DHT22;58877;51.992;4.504;2022-11-20T05:23:20;-0.81;81.11
71177;DHT22;58877;51.992;4.504;2022-11-20T05:25:45;-0.81;81.21
71177;DHT22;58877;51.992;4.504;2022-11-20T05:28:11;-0.86;81.19
71177;DHT22;58877;51.992;4.504;2022-11-20T05:30:37;-0.88;81.21
71177;DHT22;58877;51.992;4.504;2022-11-20T05:33:03;-0.87;81.38
71177;DHT22;58877;51.992;4.504;2022-11-20T05:35:29;-0.87;81.42
71177;DHT22;58877;51.992;4.504;2022-11-20T05:37:54;-0.88;81.42
71177;DHT22;58877;51.992;4.504;2022-11-20T05:40:20;-0.90;81.41
71177;DHT22;58877;51.992;4.504;2022-11-20T05:42:46;-0.86;81.41
71177;DHT22;58877;51.992;4.504;2022-11-20T05:45:11;-0.84;81.48
71177;DHT22;58877;51.992;4.504;2022-11-20T05:47:37;-0.83;81.45
71177;DHT22;58877;51.992;4.504;2022-11-20T05:50:03;-0.84;81.26
71177;DHT22;58877;51.992;4.504;2022-11-20T05:52:29;-0.83;81.21
71177;DHT22;58877;51.992;4.504;2022-11-20T05:54:56;-0.80;81.22
71177;DHT22;58877;51.992;4.504;2022-11-20T05:57:21;-0.79;81.15
71177;DHT22;58877;51.992;4.504;2022-11-20T05:59:47;-0.79;81.34
71177;DHT22;58877;51.992;4.504;2022-11-20T06:02:12;-0.80;81.49
71177;DHT22;58877;51.992;4.504;2022-11-20T06:04:38;-0.80;81.43
71177;DHT22;58877;51.992;4.504;2022-11-20T06:07:07;-0.77;81.45
71177;DHT22;58877;51.992;4.504;2022-11-20T06:09:33;-0.76;81.61
71177;DHT22;58877;51.992;4.504;2022-11-20T06:11:59;-0.69;81.52
71177;DHT22;58877;51.992;4.504;2022-11-20T06:14:25;-0.66;81.47
71177;DHT22;58877;51.992;4.504;2022-11-20T06:16:51;-0.65;81.37
71177;DHT22;58877;51.992;4.504;2022-11-20T06:19:16;-0.63;81.38
71177;DHT22;58877;51.992;4.504;2022-11-20T06:21:42;-0.59;81.38
71177;DHT22;58877;51.992;4.504;2022-11-20T06:24:09;-0.57;81.47
71177;DHT22;58877;51.992;4.504;2022-11-20T06:26:36;-0.56;81.55
71177;DHT22;58877;51.992;4.504;2022-11-20T06:29:02;-0.53;81.49
71177;DHT22;58877;51.992;4.504;2022-11-20T06:31:28;-0.50;81.67
71177;DHT22;58877;51.992;4.504;2022-11-20T06:33:54;-0.50;81.69
71177;DHT22;58877;51.992;4.504;2022-11-20T06:36:22;-0.49;81.70
71177;DHT22;58877;51.992;4.504;2022-11-20T06:38:48;-0.42;81.77
71177;DHT22;58877;51.992;4.504;2022-11-20T06:41:17;-0.35;81.80
71177;DHT22;58877;51.992;4.504;2022-11-20T06:43:43;-0.23;81.91
71177;DHT22;58877;51.992;4.504;2022-11-20T06:46:12;-0.19;81.88
71177;DHT22;58877;51.992;4.504;2022-11-20T06:48:42;-0.13;81.84
71177;DHT22;58877;51.992;4.504;2022-11-20T06:51:09;-0.09;81.95
71177;DHT22;58877;51.992;4.504;2022-11-20T06:53:36;-0.03;81.97
71177;DHT22;58877;51.992;4.504;2022-11-20T06:56:02;0.02;81.99
71177;DHT22;58877;51.992;4.504;2022-11-20T06:58:31;0.06;82.06
71177;DHT22;58877;51.992;4.504;2022-11-20T07:01:05;0.08;82.18
71177;DHT22;58877;51.992;4.504;2022-11-20T07:03:34;0.18;82.16
71177;DHT22;58877;51.992;4.504;2022-11-20T07:06:01;0.19;82.12
71177;DHT22;58877;51.992;4.504;2022-11-20T07:08:27;0.25;82.08
71177;DHT22;58877;51.992;4.504;2022-11-20T07:11:05;0.23;82.07
71177;DHT22;58877;51.992;4.504;2022-11-20T07:13:31;0.28;82.27
71177;DHT22;58877;51.992;4.504;2022-11-20T07:16:03;0.33;82.20
71177;DHT22;58877;51.992;4.504;2022-11-20T07:18:29;0.38;82.31
71177;DHT22;58877;51.992;4.504;2022-11-20T07:21:07;0.45;82.27
71177;DHT22;58877;51.992;4.504;2022-11-20T07:23:33;0.48;82.15
71177;DHT22;58877;51.992;4.504;2022-11-20T07:26:07;0.50;82.03
71177;DHT22;58877;51.992;4.504;2022-11-20T07:28:33;0.56;82.02
71177;DHT22;58877;51.992;4.504;2022-11-20T07:30:59;0.57;81.99
71177;DHT22;58877;51.992;4.504;2022-11-20T07:33:25;0.60;81.83
71177;DHT22;58877;51.992;4.504;2022-11-20T07:35:50;0.60;82.02
71177;DHT22;58877;51.992;4.504;2022-11-20T07:38:16;0.63;81.83
71177;DHT22;58877;51.992;4.504;2022-11-20T07:40:41;0.64;81.82
71177;DHT22;58877;51.992;4.504;2022-11-20T07:43:07;0.69;81.93
71177;DHT22;58877;51.992;4.504;2022-11-20T07:45:33;0.74;81.76
71177;DHT22;58877;51.992;4.504;2022-11-20T07:48:04;0.76;81.89
71177;DHT22;58877;51.992;4.504;2022-11-20T07:50:34;0.81;81.89
71177;DHT22;58877;51.992;4.504;2022-11-20T07:53:09;0.80;81.87
71177;DHT22;58877;51.992;4.504;2022-11-20T07:55:35;0.88;81.98
71177;DHT22;58877;51.992;4.504;2022-11-20T07:58:10;0.94;82.08
71177;DHT22;58877;51.992;4.504;2022-11-20T08:00:36;1.08;82.14
71177;DHT22;58877;51.992;4.504;2022-11-20T08:03:05;1.13;81.95
71177;DHT22;58877;51.992;4.504;2022-11-20T08:05:33;1.18;81.99
71177;DHT22;58877;51.992;4.504;2022-11-20T08:08:03;1.25;82.02
71177;DHT22;58877;51.992;4.504;2022-11-20T08:10:28;1.34;82.00
71177;DHT22;58877;51.992;4.504;2022-11-20T08:12:54;1.41;81.96
71177;DHT22;58877;51.992;4.504;2022-11-20T08:15:40;1.49;81.80
71177;DHT22;58877;51.992;4.504;2022-11-20T08:18:08;1.52;81.49
71177;DHT22;58877;51.992;4.504;2022-11-20T08:20:36;1.59;81.58
71177;DHT22;58877;51.992;4.504;2022-11-20T08:23:06;1.63;81.19
71177;DHT22;58877;51.992;4.504;2022-11-20T08:25:34;1.63;81.26
71177;DHT22;58877;51.992;4.504;2022-11-20T08:28:09;1.69;81.46
71177;DHT22;58877;51.992;4.504;2022-11-20T08:30:40;1.75;81.18
71177;DHT22;58877;51.992;4.504;2022-11-20T08:33:08;1.80;81.15
71177;DHT22;58877;51.992;4.504;2022-11-20T08:35:36;1.85;81.12
71177;DHT22;58877;51.992;4.504;2022-11-20T08:38:04;1.89;81.19
71177;DHT22;58877;51.992;4.504;2022-11-20T08:40:33;1.93;81.15
71177;DHT22;58877;51.992;4.504;2022-11-20T08:42:59;1.99;80.82
71177;DHT22;58877;51.992;4.504;2022-11-20T08:45:27;1.99;80.80
71177;DHT22;58877;51.992;4.504;2022-11-20T08:47:53;2.03;81.04
71177;DHT22;58877;51.992;4.504;2022-11-20T08:50:22;2.13;80.94
71177;DHT22;58877;51.992;4.504;2022-11-20T08:52:53;2.19;80.63
71177;DHT22;58877;51.992;4.504;2022-11-20T08:55:19;2.17;80.42
71177;DHT22;58877;51.992;4.504;2022-11-20T08:57:44;2.22;80.72
71177;DHT22;58877;51.992;4.504;2022-11-20T09:00:13;2.23;81.04
71177;DHT22;58877;51.992;4.504;2022-11-20T09:02:39;2.26;80.95
71177;DHT22;58877;51.992;4.504;2022-11-20T09:05:05;2.27;81.10
71177;DHT22;58877;51.992;4.504;2022-11-20T09:07:31;2.36;80.93
71177;DHT22;58877;51.992;4.504;2022-11-20T09:09:56;2.44;81.05
71177;DHT22;58877;51.992;4.504;2022-11-20T09:12:22;2.53;80.90
71177;DHT22;58877;51.992;4.504;2022-11-20T09:14:50;2.57;80.86
71177;DHT22;58877;51.992;4.504;2022-11-20T09:17:16;2.67;80.62
71177;DHT22;58877;51.992;4.504;2022-11-20T09:19:44;2.74;80.65
71177;DHT22;58877;51.992;4.504;2022-11-20T09:22:10;2.83;80.47
71177;DHT22;58877;51.992;4.504;2022-11-20T09:24:39;2.91;80.50
71177;DHT22;58877;51.992;4.504;2022-11-20T09:27:08;2.97;80.32
71177;DHT22;58877;51.992;4.504;2022-11-20T09:29:37;2.99;80.41
71177;DHT22;58877;51.992;4.504;2022-11-20T09:32:02;3.11;80.45
71177;DHT22;58877;51.992;4.504;2022-11-20T09:34:28;3.09;80.19
71177;DHT22;58877;51.992;4.504;2022-11-20T09:36:54;3.18;80.59
71177;DHT22;58877;51.992;4.504;2022-11-20T09:39:19;3.23;80.09
71177;DHT22;58877;51.992;4.504;2022-11-20T09:44:54;3.22;80.03
71177;DHT22;58877;51.992;4.504;2022-11-20T09:50:36;3.32;80.22
71177;DHT22;58877;51.992;4.504;2022-11-20T09:53:13;3.38;80.19
71177;DHT22;58877;51.992;4.504;2022-11-20T09:55:40;3.48;80.22
71177;DHT22;58877;51.992;4.504;2022-11-20T09:58:07;3.52;80.43
71177;DHT22;58877;51.992;4.504;2022-11-20T10:00:37;3.58;80.67
71177;DHT22;58877;51.992;4.504;2022-11-20T10:03:37;3.62;80.14
71177;DHT22;58877;51.992;4.504;2022-11-20T10:06:13;3.53;80.12
71177;DHT22;58877;51.992;4.504;2022-11-20T10:11:56;3.63;80.13
71177;DHT22;58877;51.992;4.504;2022-11-20T10:25:18;3.77;80.45
71177;DHT22;58877;51.992;4.504;2022-11-20T10:30:18;3.77;80.77
71177;DHT22;58877;51.992;4.504;2022-11-20T10:33:00;3.83;80.64
71177;DHT22;58877;51.992;4.504;2022-11-20T10:35:49;3.80;80.49
71177;DHT22;58877;51.992;4.504;2022-11-20T10:38:54;3.69;80.97
71177;DHT22;58877;51.992;4.504;2022-11-20T10:41:27;3.69;81.31
71177;DHT22;58877;51.992;4.504;2022-11-20T10:44:15;3.69;81.44
71177;DHT22;58877;51.992;4.504;2022-11-20T10:47:02;3.72;81.60
71177;DHT22;58877;51.992;4.504;2022-11-20T10:49:30;3.77;81.77
71177;DHT22;58877;51.992;4.504;2022-11-20T11:02:38;4.01;81.92
71177;DHT22;58877;51.992;4.504;2022-11-20T11:07:47;4.21;82.28
71177;DHT22;58877;51.992;4.504;2022-11-20T11:10:21;4.24;82.04
71177;DHT22;58877;51.992;4.504;2022-11-20T11:12:48;4.27;81.93
71177;DHT22;58877;51.992;4.504;2022-11-20T11:15:38;4.34;82.03
71177;DHT22;58877;51.992;4.504;2022-11-20T11:18:04;4.38;81.74
71177;DHT22;58877;51.992;4.504;2022-11-20T11:20:30;4.36;81.85
71177;DHT22;58877;51.992;4.504;2022-11-20T11:22:58;4.36;81.99
71177;DHT22;58877;51.992;4.504;2022-11-20T11:25:35;4.47;82.18
71177;DHT22;58877;51.992;4.504;2022-11-20T11:28:24;4.52;81.90
71177;DHT22;58877;51.992;4.504;2022-11-20T11:30:51;4.47;81.89
71177;DHT22;58877;51.992;4.504;2022-11-20T11:33:26;4.42;82.32
71177;DHT22;58877;51.992;4.504;2022-11-20T11:35:54;4.51;82.63
71177;DHT22;58877;51.992;4.504;2022-11-20T11:38:39;4.55;82.22
71177;DHT22;58877;51.992;4.504;2022-11-20T11:41:12;4.51;82.24
71177;DHT22;58877;51.992;4.504;2022-11-20T11:43:54;4.55;82.55
71177;DHT22;58877;51.992;4.504;2022-11-20T11:46:45;4.58;82.73
71177;DHT22;58877;51.992;4.504;2022-11-20T11:49:19;4.73;82.86
71177;DHT22;58877;51.992;4.504;2022-11-20T11:52:16;4.72;82.32
71177;DHT22;58877;51.992;4.504;2022-11-20T11:55:01;4.73;82.59
71177;DHT22;58877;51.992;4.504;2022-11-20T12:00:41;4.83;82.16
71177;DHT22;58877;51.992;4.504;2022-11-20T12:03:34;4.67;82.23
71177;DHT22;58877;51.992;4.504;2022-11-20T12:08:48;4.71;82.81
71177;DHT22;58877;51.992;4.504;2022-11-20T12:14:09;4.72;82.80
71177;DHT22;58877;51.992;4.504;2022-11-20T12:16:38;4.73;83.11
71177;DHT22;58877;51.992;4.504;2022-11-20T12:19:10;4.75;83.17
71177;DHT22;58877;51.992;4.504;2022-11-20T12:43:31;4.92;83.62
71177;DHT22;58877;51.992;4.504;2022-11-20T12:46:46;4.96;83.64
71177;DHT22;58877;51.992;4.504;2022-11-20T13:00:14;5.13;83.66
71177;DHT22;58877;51.992;4.504;2022-11-20T13:08:35;5.22;83.66
71177;DHT22;58877;51.992;4.504;2022-11-20T13:19:55;5.20;84.07
71177;DHT22;58877;51.992;4.504;2022-11-20T13:25:10;5.20;84.12
71177;DHT22;58877;51.992;4.504;2022-11-20T13:27:47;5.20;84.24
71177;DHT22;58877;51.992;4.504;2022-11-20T13:30:16;5.20;84.30
71177;DHT22;58877;51.992;4.504;2022-11-20T13:35:33;5.19;84.45
71177;DHT22;58877;51.992;4.504;2022-11-20T13:38:13;5.20;84.59
71177;DHT22;58877;51.992;4.504;2022-11-20T13:46:01;5.12;84.76
71177;DHT22;58877;51.992;4.504;2022-11-20T13:48:40;5.13;84.92
71177;DHT22;58877;51.992;4.504;2022-11-20T13:54:23;5.09;85.17
71177;DHT22;58877;51.992;4.504;2022-11-20T13:57:27;5.05;85.37
71177;DHT22;58877;51.992;4.504;2022-11-20T13:59:58;5.05;85.52
71177;DHT22;58877;51.992;4.504;2022-11-20T14:02:30;5.02;85.61
71177;DHT22;58877;51.992;4.504;2022-11-20T14:05:01;5.02;85.64
71177;DHT22;58877;51.992;4.504;2022-11-20T14:07:39;5.00;85.76
71177;DHT22;58877;51.992;4.504;2022-11-20T14:10:17;4.99;85.90
71177;DHT22;58877;51.992;4.504;2022-11-20T14:12:44;5.08;85.90
71177;DHT22;58877;51.992;4.504;2022-11-20T14:15:26;5.11;85.85
71177;DHT22;58877;51.992;4.504;2022-11-20T14:17:52;5.09;85.96
71177;DHT22;58877;51.992;4.504;2022-11-20T14:20:24;5.09;86.23
71177;DHT22;58877;51.992;4.504;2022-11-20T14:22:52;5.12;86.19
71177;DHT22;58877;51.992;4.504;2022-11-20T14:25:20;5.13;86.28
71177;DHT22;58877;51.992;4.504;2022-11-20T14:27:54;5.16;86.24
71177;DHT22;58877;51.992;4.504;2022-11-20T14:30:27;5.19;86.39
71177;DHT22;58877;51.992;4.504;2022-11-20T14:32:56;5.22;86.17
71177;DHT22;58877;51.992;4.504;2022-11-20T14:35:27;5.19;86.33
71177;DHT22;58877;51.992;4.504;2022-11-20T14:37:54;5.16;86.51
71177;DHT22;58877;51.992;4.504;2022-11-20T14:40:30;5.19;86.53
71177;DHT22;58877;51.992;4.504;2022-11-20T14:42:58;5.18;86.59
71177;DHT22;58877;51.992;4.504;2022-11-20T14:45:25;5.20;86.74
71177;DHT22;58877;51.992;4.504;2022-11-20T14:47:53;5.22;86.77
71177;DHT22;58877;51.992;4.504;2022-11-20T14:50:26;5.22;86.87
71177;DHT22;58877;51.992;4.504;2022-11-20T14:52:52;5.23;86.99
71177;DHT22;58877;51.992;4.504;2022-11-20T14:55:32;5.26;87.04
71177;DHT22;58877;51.992;4.504;2022-11-20T14:58:06;5.25;87.05
71177;DHT22;58877;51.992;4.504;2022-11-20T15:00:56;5.26;87.10
71177;DHT22;58877;51.992;4.504;2022-11-20T15:03:23;5.27;87.16
71177;DHT22;58877;51.992;4.504;2022-11-20T15:05:50;5.27;87.12
71177;DHT22;58877;51.992;4.504;2022-11-20T15:08:17;5.23;87.44
71177;DHT22;58877;51.992;4.504;2022-11-20T15:10:51;5.23;87.43
71177;DHT22;58877;51.992;4.504;2022-11-20T15:13:26;5.26;87.56
71177;DHT22;58877;51.992;4.504;2022-11-20T15:15:56;5.32;87.41
71177;DHT22;58877;51.992;4.504;2022-11-20T15:18:32;5.32;87.45
71177;DHT22;58877;51.992;4.504;2022-11-20T15:21:02;5.36;87.46
71177;DHT22;58877;51.992;4.504;2022-11-20T15:23:29;5.40;87.38
71177;DHT22;58877;51.992;4.504;2022-11-20T15:25:55;5.39;87.33
71177;DHT22;58877;51.992;4.504;2022-11-20T15:28:29;5.42;87.31
71177;DHT22;58877;51.992;4.504;2022-11-20T15:30:55;5.37;87.35
71177;DHT22;58877;51.992;4.504;2022-11-20T15:33:24;5.40;87.39
71177;DHT22;58877;51.992;4.504;2022-11-20T15:35:50;5.39;87.40
71177;DHT22;58877;51.992;4.504;2022-11-20T15:38:15;5.40;87.42
71177;DHT22;58877;51.992;4.504;2022-11-20T15:40:41;5.40;87.47
71177;DHT22;58877;51.992;4.504;2022-11-20T15:43:06;5.48;87.56
71177;DHT22;58877;51.992;4.504;2022-11-20T15:45:59;5.44;87.21
71177;DHT22;58877;51.992;4.504;2022-11-20T15:48:39;5.42;87.53
71177;DHT22;58877;51.992;4.504;2022-11-20T15:51:25;5.53;87.48
71177;DHT22;58877;51.992;4.504;2022-11-20T15:53:51;5.54;87.31
71177;DHT22;58877;51.992;4.504;2022-11-20T15:56:17;5.54;87.10
71177;DHT22;58877;51.992;4.504;2022-11-20T15:58:45;5.56;87.18
71177;DHT22;58877;51.992;4.504;2022-11-20T16:01:13;5.56;87.00
71177;DHT22;58877;51.992;4.504;2022-11-20T16:03:38;5.58;87.00
71177;DHT22;58877;51.992;4.504;2022-11-20T16:06:05;5.60;86.89
71177;DHT22;58877;51.992;4.504;2022-11-20T16:08:30;5.37;87.36
71177;DHT22;58877;51.992;4.504;2022-11-20T16:10:55;5.15;87.96
71177;DHT22;58877;51.992;4.504;2022-11-20T16:13:21;5.02;88.31
71177;DHT22;58877;51.992;4.504;2022-11-20T16:16:09;5.03;88.70
71177;DHT22;58877;51.992;4.504;2022-11-20T16:18:36;4.99;88.57
71177;DHT22;58877;51.992;4.504;2022-11-20T16:21:01;5.02;88.30
71177;DHT22;58877;51.992;4.504;2022-11-20T16:23:27;5.00;88.44
71177;DHT22;58877;51.992;4.504;2022-11-20T16:25:53;5.06;88.17
71177;DHT22;58877;51.992;4.504;2022-11-20T16:28:19;5.03;88.26
71177;DHT22;58877;51.992;4.504;2022-11-20T16:30:45;4.93;88.83
71177;DHT22;58877;51.992;4.504;2022-11-20T16:33:13;4.82;89.15
71177;DHT22;58877;51.992;4.504;2022-11-20T16:35:39;4.69;89.79
71177;DHT22;58877;51.992;4.504;2022-11-20T16:38:05;4.73;89.66
71177;DHT22;58877;51.992;4.504;2022-11-20T16:40:30;4.79;89.70
71177;DHT22;58877;51.992;4.504;2022-11-20T16:42:56;4.85;89.61
71177;DHT22;58877;51.992;4.504;2022-11-20T16:45:22;4.88;89.50
71177;DHT22;58877;51.992;4.504;2022-11-20T16:47:48;4.91;89.62
71177;DHT22;58877;51.992;4.504;2022-11-20T16:50:14;4.93;89.28
71177;DHT22;58877;51.992;4.504;2022-11-20T16:52:40;4.99;89.10
71177;DHT22;58877;51.992;4.504;2022-11-20T16:55:05;4.76;89.44
71177;DHT22;58877;51.992;4.504;2022-11-20T16:57:31;4.71;89.75
71177;DHT22;58877;51.992;4.504;2022-11-20T17:00:00;4.88;89.59
71177;DHT22;58877;51.992;4.504;2022-11-20T17:02:26;5.05;89.22
71177;DHT22;58877;51.992;4.504;2022-11-20T17:04:52;5.20;88.79
71177;DHT22;58877;51.992;4.504;2022-11-20T17:07:17;5.29;88.44
71177;DHT22;58877;51.992;4.504;2022-11-20T17:09:43;5.25;88.27
71177;DHT22;58877;51.992;4.504;2022-11-20T17:12:09;5.19;88.10
71177;DHT22;58877;51.992;4.504;2022-11-20T17:14:35;5.09;88.38
71177;DHT22;58877;51.992;4.504;2022-11-20T17:17:00;4.92;88.90
71177;DHT22;58877;51.992;4.504;2022-11-20T17:19:26;5.12;88.97
71177;DHT22;58877;51.992;4.504;2022-11-20T17:21:51;5.23;88.48
71177;DHT22;58877;51.992;4.504;2022-11-20T17:24:17;5.30;88.16
71177;DHT22;58877;51.992;4.504;2022-11-20T17:26:43;5.27;88.15
71177;DHT22;58877;51.992;4.504;2022-11-20T17:29:13;5.11;88.25
71177;DHT22;58877;51.992;4.504;2022-11-20T17:31:39;5.19;88.56
71177;DHT22;58877;51.992;4.504;2022-11-20T17:34:06;5.35;88.24
71177;DHT22;58877;51.992;4.504;2022-11-20T17:36:33;5.50;88.11
71177;DHT22;58877;51.992;4.504;2022-11-20T17:38:59;5.40;87.48
71177;DHT22;58877;51.992;4.504;2022-11-20T17:41:27;5.39;87.58
71177;DHT22;58877;51.992;4.504;2022-11-20T17:43:55;5.47;87.73
71177;DHT22;58877;51.992;4.504;2022-11-20T17:46:23;5.64;87.54